ADDS METAR Data INFO
IDs: Format: Raw Decoded Include TAF

Data at: 0308 UTC 16 Aug 2018

PAZK 160256Z AUTO 21008KT 10SM BKN080 11/04 A2989 RMK AO2 SLP146 60000 T01060044 55004
PAZK 160156Z AUTO 20007KT 10SM OVC065 11/04 A2989 RMK AO2 RAE03 SLP145 P0000 T01060044
PAZK 160056Z AUTO 21006KT 10SM -RA SCT080 09/06 A2989 RMK AO2 RAB51 SLP148 P0000 T00940056
PAZK 152356Z AUTO 21008KT 10SM BKN065 BKN080 10/04 A2990 RMK AO2 SLP151 60000 T01000044 10117 20067 58002
PAZK 152256Z AUTO 21007KT 10SM SCT055 11/04 A2990 RMK AO2 RAE28 SLP150 P0000 T01060044
PAZK 152211Z AUTO 23007KT 180V250 10SM -RA SCT015 BKN047 09/06 A2991 RMK AO2 P0000
PAZK 152156Z AUTO 22007KT 10SM -RA BKN015 BKN019 09/06 A2991 RMK AO2 RAB37 SLP155 P0000 T00890061
PAZK 152149Z AUTO 23008KT 10SM BKN013 BKN018 09/06 A2991 RMK AO2 RAB37E48 P0000
PAZK 152056Z AUTO 19006KT 10SM SCT011 OVC025 09/06 A2991 RMK AO2 RAE39 SLP153 P0000 60000 T00940061 50003
PAZK 152024Z AUTO 22003KT 10SM -RA SCT009 BKN026 OVC039 09/07 A2991 RMK AO2 P0000
PAZK 152013Z AUTO 19006KT 10SM -RA BKN009 BKN023 OVC045 08/06 A2991 RMK AO2 CIG 009V015 P0000
PAZK 152006Z AUTO 21006KT 10SM -RA SCT009 BKN013 OVC045 08/06 A2991 RMK AO2 P0000
PAZK 151956Z AUTO 21005KT 10SM -RA SCT009 OVC045 09/07 A2991 RMK AO2 RAB31 SLP155 P0000 T00890067
PAZK 151856Z AUTO 22005KT 10SM FEW003 OVC045 08/06 A2990 RMK AO2 RAE15 SLP155 P0000 T00780061
PAZK 151813Z AUTO 21006KT 10SM -RA FEW003 SCT045 07/06 A2990 RMK AO2 P0000
PAZK 151804Z AUTO 21007KT 10SM -RA BKN003 BKN043 07/06 A2990 RMK AO2 P0000
PAZK 151756Z AUTO 22005KT 10SM -RA SCT003 BKN043 07/06 A2990 RMK AO2 RAB1658 SLP152 P0001 60001 T00670061 10067 20050 51006
PAZK 151656Z AUTO 22007KT 10SM FEW002 OVC044 06/05 A2989 RMK AO2 SLP150 T00560050
PAZK 151644Z AUTO 21005KT 10SM SCT002 OVC042 06/05 A2989 RMK AO2
PAZK 151632Z AUTO 22007KT 10SM BKN002 OVC040 06/05 A2989 RMK AO2
PAZK 151615Z AUTO 22005KT 10SM FEW002 SCT029 OVC040 06/05 A2988 RMK AO2
PAZK 151456Z AUTO 23004KT 10SM -RA OVC038 06/05 A2988 RMK AO2 SLP144 P0000 60000 T00560050 53003
PAZK 151414Z AUTO 24007KT 10SM -RA FEW002 OVC040 06/05 A2987 RMK AO2 P0000
PAZK 151356Z AUTO 23007KT 5SM -RA BR BKN002 OVC040 06/05 A2987 RMK AO2 RAB52 SLP142 P0000 T00560050
PAZK 151319Z AUTO 22007KT 3SM BR OVC002 06/05 A2986 RMK AO2
PAZK 151300Z AUTO 23006KT 1 3/4SM BR BKN002 OVC040 06/05 A2986 RMK AO2 VIS 1V5
PAZK 151256Z AUTO 23006KT 4SM BR BKN002 OVC040 06/05 A2986 RMK AO2 SLP138 T00560050
PAZK 151156Z AUTO 23005KT 10SM OVC002 06/06 A2987 RMK AO2 SLP139 70004 T00560056 10061 20056 51007
PAZK 151141Z AUTO 23007KT 8SM BKN002 OVC065 06/06 A2986 RMK AO2
PAZK 151056Z AUTO 22005KT 10SM OVC002 06/05 A2986 RMK AO2 SLP138 T00560050
PAZK 151008Z AUTO 22008KT 2SM BR OVC002 06/05 A2986 RMK AO2
PAZK 150956Z AUTO 23007KT 4SM BR OVC002 06/05 A2985 RMK AO2 SLP137 T00560050
PAZK 150842Z AUTO 22006KT 10SM BKN002 OVC070 06/05 A2984 RMK AO2
PAZK 150813Z AUTO 21007KT 10SM SCT002 OVC065 06/05 A2983 RMK AO2
PAZK 150756Z AUTO 21007KT 10SM OVC065 06/05 A2982 RMK AO2 SLP126 T00560050 401000044
PAZK 150656Z AUTO 21006KT 10SM BKN100 06/05 A2981 RMK AO2 SLP123 T00560050
PAZK 150556Z AUTO 22006KT 10SM OVC080 06/06 A2980 RMK AO2 SLP120 60000 T00610056 10100 20061 53010
PAZK 150456Z AUTO 20006KT 10SM OVC045 07/06 A2979 RMK AO2 SLP116 T00720056
PAZK 150356Z AUTO 21008G14KT 10SM BKN043 BKN085 09/05 A2977 RMK AO2 RAE06 SLP110 P0000 T00890050
PAZK 150256Z AUTO 20008KT 10SM -RA FEW085 08/06 A2977 RMK AO2 RAE10B43 SLP107 P0000 60000 T00830061 51006
PAZK 150156Z AUTO 20008KT 10SM -RA BKN085 09/06 A2976 RMK AO2 RAE30B56 SLP106 P0000 T00890061
PAZK 150056Z AUTO 21008KT 10SM -RA FEW060 10/06 A2975 RMK AO2 SLP101 P0000 T01000061
PAZK 142356Z AUTO 19009KT 10SM -RA FEW050 OVC070 09/06 A2975 RMK AO2 RAB32 SLP099 P0000 60000 T00940061 10100 20056 51008
PAZK 142256Z AUTO 20007KT 10SM BKN049 OVC075 09/05 A2974 RMK AO2 SLP097 T00940050
PAZK 142156Z AUTO 23005KT 10SM OVC070 09/05 A2973 RMK AO2 SLP093 T00890050
PAZK 142118Z AUTO 18007KT 10SM FEW017 OVC070 09/05 A2972 RMK AO2
PAZK 142056Z AUTO 22007KT 10SM BKN015 BKN022 OVC036 08/05 A2972 RMK AO2 RAB29E53 SLP091 P0000 60000 T00830050 51008
PAZK 142037Z AUTO 20006KT 10SM -RA FEW010 BKN015 BKN070 09/06 A2972 RMK AO2 RAB29 P0000
PAZK 142014Z AUTO 23006KT 10SM BKN008 BKN032 OVC070 09/05 A2971 RMK AO2
PAZK 141956Z AUTO 23005KT 10SM FEW008 OVC032 08/06 A2971 RMK AO2 RAB02E31 SLP088 P0000 T00830056
PAZK 141942Z AUTO 22006KT 10SM SCT006 OVC032 08/06 A2971 RMK AO2 RAB02E31 P0000
PAZK 141923Z AUTO 22004KT 10SM -RA BKN006 BKN080 07/06 A2971 RMK AO2 RAB02 CIG 003V010 P0000
PAZK 141856Z AUTO 21005KT 10SM FEW004 SCT055 BKN080 07/06 A2970 RMK AO2 RAB16E47 SLP087 P0000 T00670056
PAZK 141812Z AUTO 23005KT 10SM SCT003 OVC085 06/05 A2970 RMK AO2
PAZK 141656Z AUTO 23007KT 9SM -RA OVC003 05/05 A2968 RMK AO2 SLP080 P0001 T00500050
PAZK 141651Z AUTO 23007KT 3SM -RA BR OVC003 05/05 A2968 RMK AO2 P0001
PAZK 141645Z AUTO 22006KT 1 3/4SM -RA BR OVC003 05/05 A2968 RMK AO2 P0001
PAZK 141637Z AUTO 22007KT 5SM -RA BR OVC003 05/04 A2968 RMK AO2 P0001
PAZK 141625Z AUTO 21007KT 1SM -RA BR OVC003 04/04 A2968 RMK AO2 P0001
PAZK 141607Z AUTO 22006KT 3/4SM -RA BR OVC003 04/04 A2968 RMK AO2 VIS 1/2V5 P0001
PAZK 141604Z AUTO 21005KT 1 1/2SM -RA BR OVC003 04/04 A2968 RMK AO2 VIS 1/2V5 P0000
PAZK 141556Z AUTO 22006KT 10SM -RA OVC003 04/04 A2968 RMK AO2 SLP076 P0002 T00440044
PAZK 141538Z AUTO 22008KT 5SM -RA BR OVC003 04/04 A2967 RMK AO2 P0001
PAZK 141530Z AUTO 22007KT 2SM -RA BR OVC003 04/04 A2967 RMK AO2 VIS 3/4V5 P0001
PAZK 141527Z AUTO 22006KT 1SM -RA BR OVC003 04/04 A2967 RMK AO2 VIS 1/4V5 P0001